sensor_id;sensor_type;location;lat;lon;timestamp;temperature;humidity
9371;DHT22;4725;48.384;8.984;2022-12-07T00:00:51;1.90;99.90
9371;DHT22;4725;48.384;8.984;2022-12-07T00:03:18;1.90;99.90
9371;DHT22;4725;48.384;8.984;2022-12-07T00:05:45;1.90;99.90
9371;DHT22;4725;48.384;8.984;2022-12-07T00:08:12;1.90;99.90
9371;DHT22;4725;48.384;8.984;2022-12-07T00:10:40;1.90;99.90
9371;DHT22;4725;48.384;8.984;2022-12-07T00:13:07;1.90;99.90
9371;DHT22;4725;48.384;8.984;2022-12-07T00:15:34;1.90;99.90
9371;DHT22;4725;48.384;8.984;2022-12-07T00:18:02;1.90;99.90
9371;DHT22;4725;48.384;8.984;2022-12-07T00:20:29;1.90;99.90
9371;DHT22;4725;48.384;8.984;2022-12-07T00:22:56;1.90;99.90
9371;DHT22;4725;48.384;8.984;2022-12-07T00:25:23;1.90;99.90
9371;DHT22;4725;48.384;8.984;2022-12-07T00:27:52;2.00;99.90
9371;DHT22;4725;48.384;8.984;2022-12-07T00:30:21;1.90;99.90
9371;DHT22;4725;48.384;8.984;2022-12-07T00:32:48;1.90;99.90
9371;DHT22;4725;48.384;8.984;2022-12-07T00:35:15;1.90;99.90
9371;DHT22;4725;48.384;8.984;2022-12-07T00:37:42;2.00;99.90
9371;DHT22;4725;48.384;8.984;2022-12-07T00:40:09;2.00;99.90
9371;DHT22;4725;48.384;8.984;2022-12-07T00:42:36;2.00;99.90
9371;DHT22;4725;48.384;8.984;2022-12-07T00:45:06;1.90;99.90
9371;DHT22;4725;48.384;8.984;2022-12-07T00:47:33;1.90;99.90
9371;DHT22;4725;48.384;8.984;2022-12-07T00:50:00;1.90;99.90
9371;DHT22;4725;48.384;8.984;2022-12-07T00:52:27;1.90;99.90
9371;DHT22;4725;48.384;8.984;2022-12-07T00:54:54;1.90;99.90
9371;DHT22;4725;48.384;8.984;2022-12-07T00:57:21;1.90;99.90
9371;DHT22;4725;48.384;8.984;2022-12-07T00:59:48;2.00;99.90
9371;DHT22;4725;48.384;8.984;2022-12-07T01:02:16;2.00;99.90
9371;DHT22;4725;48.384;8.984;2022-12-07T01:04:43;2.00;99.90
9371;DHT22;4725;48.384;8.984;2022-12-07T01:07:10;2.00;99.90
9371;DHT22;4725;48.384;8.984;2022-12-07T01:09:37;2.00;99.90
9371;DHT22;4725;48.384;8.984;2022-12-07T01:12:05;2.00;99.90
9371;DHT22;4725;48.384;8.984;2022-12-07T01:14:31;2.10;99.90
9371;DHT22;4725;48.384;8.984;2022-12-07T01:16:58;2.00;99.90
9371;DHT22;4725;48.384;8.984;2022-12-07T01:19:27;2.00;99.90
9371;DHT22;4725;48.384;8.984;2022-12-07T01:21:54;2.00;99.90
9371;DHT22;4725;48.384;8.984;2022-12-07T01:24:22;2.00;99.90
9371;DHT22;4725;48.384;8.984;2022-12-07T01:26:49;2.00;99.90
9371;DHT22;4725;48.384;8.984;2022-12-07T01:29:16;2.00;99.90
9371;DHT22;4725;48.384;8.984;2022-12-07T01:31:43;2.00;99.90
9371;DHT22;4725;48.384;8.984;2022-12-07T01:34:10;2.00;99.90
9371;DHT22;4725;48.384;8.984;2022-12-07T01:36:38;2.10;99.90
9371;DHT22;4725;48.384;8.984;2022-12-07T01:39:06;2.00;99.90
9371;DHT22;4725;48.384;8.984;2022-12-07T01:41:35;2.00;99.90
9371;DHT22;4725;48.384;8.984;2022-12-07T01:44:19;2.10;99.90
9371;DHT22;4725;48.384;8.984;2022-12-07T01:46:48;2.10;99.90
9371;DHT22;4725;48.384;8.984;2022-12-07T01:49:20;2.10;99.90
9371;DHT22;4725;48.384;8.984;2022-12-07T01:51:54;2.00;99.90
9371;DHT22;4725;48.384;8.984;2022-12-07T01:54:24;2.10;99.90
9371;DHT22;4725;48.384;8.984;2022-12-07T01:56:53;2.10;99.90
9371;DHT22;4725;48.384;8.984;2022-12-07T01:59:23;2.00;99.90
9371;DHT22;4725;48.384;8.984;2022-12-07T02:01:52;2.00;99.90
9371;DHT22;4725;48.384;8.984;2022-12-07T02:04:19;1.90;99.90
9371;DHT22;4725;48.384;8.984;2022-12-07T02:06:48;1.90;99.90
9371;DHT22;4725;48.384;8.984;2022-12-07T02:09:15;1.90;99.90
9371;DHT22;4725;48.384;8.984;2022-12-07T02:11:42;1.90;99.90
9371;DHT22;4725;48.384;8.984;2022-12-07T02:14:09;1.90;99.90
9371;DHT22;4725;48.384;8.984;2022-12-07T02:16:45;1.90;99.90
9371;DHT22;4725;48.384;8.984;2022-12-07T02:19:39;1.90;99.90
9371;DHT22;4725;48.384;8.984;2022-12-07T02:22:27;2.00;99.90
9371;DHT22;4725;48.384;8.984;2022-12-07T02:25:05;2.00;99.90
9371;DHT22;4725;48.384;8.984;2022-12-07T02:27:39;2.00;99.90
9371;DHT22;4725;48.384;8.984;2022-12-07T02:30:12;2.00;99.90
9371;DHT22;4725;48.384;8.984;2022-12-07T02:32:48;2.00;99.90
9371;DHT22;4725;48.384;8.984;2022-12-07T02:35:20;2.00;99.90
9371;DHT22;4725;48.384;8.984;2022-12-07T02:37:57;1.30;99.90
9371;DHT22;4725;48.384;8.984;2022-12-07T02:40:29;2.00;99.90
9371;DHT22;4725;48.384;8.984;2022-12-07T02:43:02;0.30;99.90
9371;DHT22;4725;48.384;8.984;2022-12-07T02:45:32;2.00;99.90
9371;DHT22;4725;48.384;8.984;2022-12-07T02:48:01;2.00;99.90
9371;DHT22;4725;48.384;8.984;2022-12-07T02:50:29;2.00;99.90
9371;DHT22;4725;48.384;8.984;2022-12-07T02:52:56;2.00;99.90
9371;DHT22;4725;48.384;8.984;2022-12-07T02:55:29;2.00;99.90
9371;DHT22;4725;48.384;8.984;2022-12-07T02:58:20;1.90;99.90
9371;DHT22;4725;48.384;8.984;2022-12-07T03:00:57;1.90;99.90
9371;DHT22;4725;48.384;8.984;2022-12-07T03:03:28;1.90;99.90
9371;DHT22;4725;48.384;8.984;2022-12-07T03:06:08;1.90;99.90
9371;DHT22;4725;48.384;8.984;2022-12-07T03:08:44;1.90;99.90
9371;DHT22;4725;48.384;8.984;2022-12-07T03:11:14;1.90;99.90
9371;DHT22;4725;48.384;8.984;2022-12-07T03:13:45;1.80;99.90
9371;DHT22;4725;48.384;8.984;2022-12-07T03:16:17;1.80;99.90
9371;DHT22;4725;48.384;8.984;2022-12-07T03:18:48;1.80;99.90
9371;DHT22;4725;48.384;8.984;2022-12-07T03:21:20;1.90;99.90
9371;DHT22;4725;48.384;8.984;2022-12-07T03:23:51;1.90;99.90
9371;DHT22;4725;48.384;8.984;2022-12-07T03:26:19;1.90;99.90
9371;DHT22;4725;48.384;8.984;2022-12-07T03:28:52;1.90;99.90
9371;DHT22;4725;48.384;8.984;2022-12-07T03:31:23;1.90;99.90
9371;DHT22;4725;48.384;8.984;2022-12-07T03:33:58;1.90;99.90
9371;DHT22;4725;48.384;8.984;2022-12-07T03:36:29;1.90;99.90
9371;DHT22;4725;48.384;8.984;2022-12-07T03:39:06;1.90;99.90
9371;DHT22;4725;48.384;8.984;2022-12-07T03:41:34;1.90;99.90
9371;DHT22;4725;48.384;8.984;2022-12-07T03:44:02;1.90;99.90
9371;DHT22;4725;48.384;8.984;2022-12-07T03:46:37;2.00;99.90
9371;DHT22;4725;48.384;8.984;2022-12-07T03:49:09;1.90;99.90
9371;DHT22;4725;48.384;8.984;2022-12-07T03:51:42;1.90;99.90
9371;DHT22;4725;48.384;8.984;2022-12-07T03:54:15;1.90;99.90
9371;DHT22;4725;48.384;8.984;2022-12-07T03:56:46;1.80;99.90
9371;DHT22;4725;48.384;8.984;2022-12-07T03:59:14;1.60;99.90
9371;DHT22;4725;48.384;8.984;2022-12-07T04:01:44;1.60;99.90
9371;DHT22;4725;48.384;8.984;2022-12-07T04:04:11;1.40;99.90
9371;DHT22;4725;48.384;8.984;2022-12-07T04:06:38;1.20;99.90
9371;DHT22;4725;48.384;8.984;2022-12-07T04:09:05;1.10;99.90
9371;DHT22;4725;48.384;8.984;2022-12-07T04:11:32;1.00;99.90
9371;DHT22;4725;48.384;8.984;2022-12-07T04:13:59;1.00;99.90
9371;DHT22;4725;48.384;8.984;2022-12-07T04:16:45;0.90;99.90
9371;DHT22;4725;48.384;8.984;2022-12-07T04:19:12;0.90;99.90
9371;DHT22;4725;48.384;8.984;2022-12-07T04:21:40;0.80;99.90
9371;DHT22;4725;48.384;8.984;2022-12-07T04:24:07;0.70;99.90
9371;DHT22;4725;48.384;8.984;2022-12-07T04:26:34;0.70;99.90
9371;DHT22;4725;48.384;8.984;2022-12-07T04:29:01;0.70;99.90
9371;DHT22;4725;48.384;8.984;2022-12-07T04:31:28;0.70;99.90
9371;DHT22;4725;48.384;8.984;2022-12-07T04:33:56;0.70;99.90
9371;DHT22;4725;48.384;8.984;2022-12-07T04:36:23;0.60;99.90
9371;DHT22;4725;48.384;8.984;2022-12-07T04:38:53;0.60;99.90
9371;DHT22;4725;48.384;8.984;2022-12-07T04:41:21;0.70;99.90
9371;DHT22;4725;48.384;8.984;2022-12-07T04:43:53;0.60;99.90
9371;DHT22;4725;48.384;8.984;2022-12-07T04:46:20;0.60;99.90
9371;DHT22;4725;48.384;8.984;2022-12-07T04:48:47;0.60;99.90
9371;DHT22;4725;48.384;8.984;2022-12-07T04:51:19;0.60;99.90
9371;DHT22;4725;48.384;8.984;2022-12-07T04:53:46;0.60;99.90
9371;DHT22;4725;48.384;8.984;2022-12-07T04:56:14;0.60;99.90
9371;DHT22;4725;48.384;8.984;2022-12-07T04:58:41;0.60;99.90
9371;DHT22;4725;48.384;8.984;2022-12-07T05:01:09;0.60;99.90
9371;DHT22;4725;48.384;8.984;2022-12-07T05:03:36;0.60;99.90
9371;DHT22;4725;48.384;8.984;2022-12-07T05:06:04;0.50;99.90
9371;DHT22;4725;48.384;8.984;2022-12-07T05:08:33;0.50;99.90
9371;DHT22;4725;48.384;8.984;2022-12-07T05:11:00;0.50;99.90
9371;DHT22;4725;48.384;8.984;2022-12-07T05:13:28;0.50;99.90
9371;DHT22;4725;48.384;8.984;2022-12-07T05:15:55;0.50;99.90
9371;DHT22;4725;48.384;8.984;2022-12-07T05:18:22;0.50;99.90
9371;DHT22;4725;48.384;8.984;2022-12-07T05:20:49;0.40;99.90
9371;DHT22;4725;48.384;8.984;2022-12-07T05:23:17;0.30;99.90
9371;DHT22;4725;48.384;8.984;2022-12-07T05:25:46;0.20;99.90
9371;DHT22;4725;48.384;8.984;2022-12-07T05:28:13;0.30;99.90
9371;DHT22;4725;48.384;8.984;2022-12-07T05:30:40;0.20;99.90
9371;DHT22;4725;48.384;8.984;2022-12-07T05:33:07;0.20;99.90
9371;DHT22;4725;48.384;8.984;2022-12-07T05:35:35;0.20;99.90
9371;DHT22;4725;48.384;8.984;2022-12-07T05:38:03;0.10;99.90
9371;DHT22;4725;48.384;8.984;2022-12-07T05:40:30;0.00;99.90
9371;DHT22;4725;48.384;8.984;2022-12-07T05:42:58;0.10;99.90
9371;DHT22;4725;48.384;8.984;2022-12-07T05:45:25;0.00;99.90
9371;DHT22;4725;48.384;8.984;2022-12-07T05:47:52;-0.10;99.90
9371;DHT22;4725;48.384;8.984;2022-12-07T05:50:19;0.00;99.90
9371;DHT22;4725;48.384;8.984;2022-12-07T05:52:46;-0.10;99.90
9371;DHT22;4725;48.384;8.984;2022-12-07T05:55:13;-0.10;99.90
9371;DHT22;4725;48.384;8.984;2022-12-07T05:57:40;-0.20;99.90
9371;DHT22;4725;48.384;8.984;2022-12-07T06:00:30;-0.20;99.90
9371;DHT22;4725;48.384;8.984;2022-12-07T06:02:56;-0.20;99.90
9371;DHT22;4725;48.384;8.984;2022-12-07T06:05:23;-0.20;99.90
9371;DHT22;4725;48.384;8.984;2022-12-07T06:07:49;-0.30;99.90
9371;DHT22;4725;48.384;8.984;2022-12-07T06:10:17;-0.40;99.90
9371;DHT22;4725;48.384;8.984;2022-12-07T06:12:43;-0.40;99.90
9371;DHT22;4725;48.384;8.984;2022-12-07T06:15:12;-0.50;99.90
9371;DHT22;4725;48.384;8.984;2022-12-07T06:17:40;-0.50;99.90
9371;DHT22;4725;48.384;8.984;2022-12-07T06:20:08;-0.60;99.90
9371;DHT22;4725;48.384;8.984;2022-12-07T06:22:35;-0.60;99.90
9371;DHT22;4725;48.384;8.984;2022-12-07T06:25:02;-0.80;99.90
9371;DHT22;4725;48.384;8.984;2022-12-07T06:27:29;-1.00;99.90
9371;DHT22;4725;48.384;8.984;2022-12-07T06:29:59;-1.20;99.90
9371;DHT22;4725;48.384;8.984;2022-12-07T06:32:31;-1.20;99.90
9371;DHT22;4725;48.384;8.984;2022-12-07T06:35:00;-1.10;99.90
9371;DHT22;4725;48.384;8.984;2022-12-07T06:37:27;-1.20;99.90
9371;DHT22;4725;48.384;8.984;2022-12-07T06:39:54;-1.20;99.90
9371;DHT22;4725;48.384;8.984;2022-12-07T06:42:23;-1.20;99.90
9371;DHT22;4725;48.384;8.984;2022-12-07T06:44:51;-1.20;99.90
9371;DHT22;4725;48.384;8.984;2022-12-07T06:47:18;-1.20;99.90
9371;DHT22;4725;48.384;8.984;2022-12-07T06:49:46;-1.10;99.90
9371;DHT22;4725;48.384;8.984;2022-12-07T06:52:15;-1.10;99.90
9371;DHT22;4725;48.384;8.984;2022-12-07T06:54:42;-1.10;99.90
9371;DHT22;4725;48.384;8.984;2022-12-07T06:57:10;-1.10;99.90
9371;DHT22;4725;48.384;8.984;2022-12-07T06:59:38;-1.20;99.90
9371;DHT22;4725;48.384;8.984;2022-12-07T07:02:05;-1.30;99.90
9371;DHT22;4725;48.384;8.984;2022-12-07T07:04:32;-1.30;99.90
9371;DHT22;4725;48.384;8.984;2022-12-07T07:06:59;-1.10;99.90
9371;DHT22;4725;48.384;8.984;2022-12-07T07:09:27;-0.80;99.90
9371;DHT22;4725;48.384;8.984;2022-12-07T07:11:54;-0.90;99.90
9371;DHT22;4725;48.384;8.984;2022-12-07T07:14:21;-0.80;99.90
9371;DHT22;4725;48.384;8.984;2022-12-07T07:16:48;-1.00;99.90
9371;DHT22;4725;48.384;8.984;2022-12-07T07:19:15;-1.10;99.90
9371;DHT22;4725;48.384;8.984;2022-12-07T07:21:42;-1.20;99.90
9371;DHT22;4725;48.384;8.984;2022-12-07T07:24:09;-1.10;99.90
9371;DHT22;4725;48.384;8.984;2022-12-07T07:26:37;-1.10;99.90
9371;DHT22;4725;48.384;8.984;2022-12-07T07:29:04;-1.00;99.90
9371;DHT22;4725;48.384;8.984;2022-12-07T07:31:31;-0.80;99.90
9371;DHT22;4725;48.384;8.984;2022-12-07T07:34:00;-0.80;99.90
9371;DHT22;4725;48.384;8.984;2022-12-07T07:36:27;-0.60;99.90
9371;DHT22;4725;48.384;8.984;2022-12-07T07:38:54;-0.50;99.90
9371;DHT22;4725;48.384;8.984;2022-12-07T07:41:21;-0.50;99.90
9371;DHT22;4725;48.384;8.984;2022-12-07T07:43:50;-0.30;99.90
9371;DHT22;4725;48.384;8.984;2022-12-07T07:46:17;-0.30;99.90
9371;DHT22;4725;48.384;8.984;2022-12-07T07:48:44;-0.30;99.90
9371;DHT22;4725;48.384;8.984;2022-12-07T07:51:11;-0.10;99.90
9371;DHT22;4725;48.384;8.984;2022-12-07T07:53:38;-0.20;99.90
9371;DHT22;4725;48.384;8.984;2022-12-07T07:56:05;-0.10;99.90
9371;DHT22;4725;48.384;8.984;2022-12-07T07:58:31;0.00;99.90
9371;DHT22;4725;48.384;8.984;2022-12-07T08:01:04;0.10;99.90
9371;DHT22;4725;48.384;8.984;2022-12-07T08:03:32;0.10;99.90
9371;DHT22;4725;48.384;8.984;2022-12-07T08:05:59;0.10;99.90
9371;DHT22;4725;48.384;8.984;2022-12-07T08:08:25;0.20;99.90
9371;DHT22;4725;48.384;8.984;2022-12-07T08:10:53;0.30;99.90
9371;DHT22;4725;48.384;8.984;2022-12-07T08:13:20;0.30;99.90
9371;DHT22;4725;48.384;8.984;2022-12-07T08:15:47;0.20;99.90
9371;DHT22;4725;48.384;8.984;2022-12-07T08:18:16;1.50;99.90
9371;DHT22;4725;48.384;8.984;2022-12-07T08:20:43;0.30;99.90
9371;DHT22;4725;48.384;8.984;2022-12-07T08:23:11;0.30;99.90
9371;DHT22;4725;48.384;8.984;2022-12-07T08:25:38;0.40;99.90
9371;DHT22;4725;48.384;8.984;2022-12-07T08:28:05;0.40;99.90
9371;DHT22;4725;48.384;8.984;2022-12-07T08:30:33;0.40;99.90
9371;DHT22;4725;48.384;8.984;2022-12-07T08:33:00;0.40;99.90
9371;DHT22;4725;48.384;8.984;2022-12-07T08:35:28;0.50;99.90
9371;DHT22;4725;48.384;8.984;2022-12-07T08:37:55;0.50;99.90
9371;DHT22;4725;48.384;8.984;2022-12-07T08:40:23;0.50;99.90
9371;DHT22;4725;48.384;8.984;2022-12-07T08:42:50;0.40;99.90
9371;DHT22;4725;48.384;8.984;2022-12-07T08:45:19;0.70;99.90
9371;DHT22;4725;48.384;8.984;2022-12-07T08:47:51;0.70;99.90
9371;DHT22;4725;48.384;8.984;2022-12-07T08:50:20;0.90;99.90
9371;DHT22;4725;48.384;8.984;2022-12-07T08:52:51;0.90;99.90
9371;DHT22;4725;48.384;8.984;2022-12-07T08:55:19;1.00;99.90
9371;DHT22;4725;48.384;8.984;2022-12-07T08:57:47;1.00;99.90
9371;DHT22;4725;48.384;8.984;2022-12-07T09:00:15;0.90;99.90
9371;DHT22;4725;48.384;8.984;2022-12-07T09:02:43;0.90;99.90
9371;DHT22;4725;48.384;8.984;2022-12-07T09:05:10;0.90;99.90
9371;DHT22;4725;48.384;8.984;2022-12-07T09:07:37;1.00;99.90
9371;DHT22;4725;48.384;8.984;2022-12-07T09:10:07;1.00;99.90
9371;DHT22;4725;48.384;8.984;2022-12-07T09:12:34;1.00;99.90
9371;DHT22;4725;48.384;8.984;2022-12-07T09:15:01;1.10;99.90
9371;DHT22;4725;48.384;8.984;2022-12-07T09:17:32;1.20;99.90
9371;DHT22;4725;48.384;8.984;2022-12-07T09:20:00;1.30;99.90
9371;DHT22;4725;48.384;8.984;2022-12-07T09:22:28;1.40;99.90
9371;DHT22;4725;48.384;8.984;2022-12-07T09:24:55;1.50;99.90
9371;DHT22;4725;48.384;8.984;2022-12-07T09:29:51;1.60;99.90
9371;DHT22;4725;48.384;8.984;2022-12-07T09:34:45;1.60;99.90
9371;DHT22;4725;48.384;8.984;2022-12-07T09:37:12;1.70;99.90
9371;DHT22;4725;48.384;8.984;2022-12-07T09:39:40;1.90;99.90
9371;DHT22;4725;48.384;8.984;2022-12-07T09:42:07;1.90;99.90
9371;DHT22;4725;48.384;8.984;2022-12-07T09:44:40;2.00;99.90
9371;DHT22;4725;48.384;8.984;2022-12-07T09:47:09;2.20;99.90
9371;DHT22;4725;48.384;8.984;2022-12-07T09:49:36;2.20;99.90
9371;DHT22;4725;48.384;8.984;2022-12-07T09:52:17;2.20;99.90
9371;DHT22;4725;48.384;8.984;2022-12-07T09:54:47;2.20;99.90
9371;DHT22;4725;48.384;8.984;2022-12-07T09:57:15;2.30;99.90
9371;DHT22;4725;48.384;8.984;2022-12-07T10:02:25;2.50;99.90
9371;DHT22;4725;48.384;8.984;2022-12-07T10:07:20;2.60;99.90
9371;DHT22;4725;48.384;8.984;2022-12-07T10:09:47;2.70;99.90
9371;DHT22;4725;48.384;8.984;2022-12-07T10:12:15;2.80;99.90
9371;DHT22;4725;48.384;8.984;2022-12-07T10:14:53;2.80;99.90
9371;DHT22;4725;48.384;8.984;2022-12-07T10:17:30;3.00;99.90
9371;DHT22;4725;48.384;8.984;2022-12-07T10:20:22;3.10;99.90
9371;DHT22;4725;48.384;8.984;2022-12-07T10:22:58;3.10;99.90
9371;DHT22;4725;48.384;8.984;2022-12-07T10:25:28;3.00;99.90
9371;DHT22;4725;48.384;8.984;2022-12-07T10:28:12;3.10;99.90
9371;DHT22;4725;48.384;8.984;2022-12-07T10:30:54;3.20;99.90
9371;DHT22;4725;48.384;8.984;2022-12-07T10:33:40;3.20;99.90
9371;DHT22;4725;48.384;8.984;2022-12-07T10:36:21;3.00;99.90
9371;DHT22;4725;48.384;8.984;2022-12-07T10:38:50;3.40;99.90
9371;DHT22;4725;48.384;8.984;2022-12-07T10:41:18;3.50;99.90
9371;DHT22;4725;48.384;8.984;2022-12-07T10:43:53;3.60;99.90
9371;DHT22;4725;48.384;8.984;2022-12-07T10:52:25;3.60;99.90
9371;DHT22;4725;48.384;8.984;2022-12-07T10:55:08;3.60;99.90
9371;DHT22;4725;48.384;8.984;2022-12-07T10:57:45;3.50;99.90
9371;DHT22;4725;48.384;8.984;2022-12-07T11:00:18;3.40;99.90
9371;DHT22;4725;48.384;8.984;2022-12-07T11:05:54;3.70;99.90
9371;DHT22;4725;48.384;8.984;2022-12-07T11:08:32;3.90;99.90
9371;DHT22;4725;48.384;8.984;2022-12-07T11:11:08;4.00;99.90
9371;DHT22;4725;48.384;8.984;2022-12-07T11:13:41;4.00;99.90
9371;DHT22;4725;48.384;8.984;2022-12-07T11:16:24;4.00;99.90
9371;DHT22;4725;48.384;8.984;2022-12-07T11:21:56;4.00;99.90
9371;DHT22;4725;48.384;8.984;2022-12-07T11:24:28;4.00;99.90
9371;DHT22;4725;48.384;8.984;2022-12-07T11:27:07;4.00;99.90
9371;DHT22;4725;48.384;8.984;2022-12-07T11:29:54;4.50;99.90
9371;DHT22;4725;48.384;8.984;2022-12-07T11:35:24;4.70;99.90
9371;DHT22;4725;48.384;8.984;2022-12-07T11:37:57;5.20;99.90
9371;DHT22;4725;48.384;8.984;2022-12-07T11:40:27;5.10;99.90
9371;DHT22;4725;48.384;8.984;2022-12-07T11:42:59;5.10;99.90
9371;DHT22;4725;48.384;8.984;2022-12-07T11:45:31;5.30;99.90
9371;DHT22;4725;48.384;8.984;2022-12-07T11:48:01;5.30;99.90
9371;DHT22;4725;48.384;8.984;2022-12-07T11:50:34;5.30;99.90
9371;DHT22;4725;48.384;8.984;2022-12-07T11:53:12;5.10;99.90
9371;DHT22;4725;48.384;8.984;2022-12-07T11:55:43;5.20;99.90
9371;DHT22;4725;48.384;8.984;2022-12-07T11:58:23;5.00;99.90
9371;DHT22;4725;48.384;8.984;2022-12-07T12:01:04;5.00;99.90
9371;DHT22;4725;48.384;8.984;2022-12-07T12:03:37;5.00;99.90
9371;DHT22;4725;48.384;8.984;2022-12-07T12:06:07;4.90;99.90
9371;DHT22;4725;48.384;8.984;2022-12-07T12:08:38;4.90;99.90
9371;DHT22;4725;48.384;8.984;2022-12-07T12:11:13;4.80;99.90
9371;DHT22;4725;48.384;8.984;2022-12-07T12:14:09;4.90;99.90
9371;DHT22;4725;48.384;8.984;2022-12-07T12:17:00;5.00;99.90
9371;DHT22;4725;48.384;8.984;2022-12-07T12:19:34;4.90;99.90
9371;DHT22;4725;48.384;8.984;2022-12-07T12:22:10;4.90;99.90
9371;DHT22;4725;48.384;8.984;2022-12-07T12:24:41;5.10;99.90
9371;DHT22;4725;48.384;8.984;2022-12-07T12:27:17;5.10;99.90
9371;DHT22;4725;48.384;8.984;2022-12-07T12:29:53;5.20;99.90
9371;DHT22;4725;48.384;8.984;2022-12-07T12:32:23;5.30;99.90
9371;DHT22;4725;48.384;8.984;2022-12-07T12:35:19;5.20;99.90
9371;DHT22;4725;48.384;8.984;2022-12-07T12:40:42;5.10;99.90
9371;DHT22;4725;48.384;8.984;2022-12-07T12:43:45;5.30;99.90
9371;DHT22;4725;48.384;8.984;2022-12-07T12:46:49;5.30;99.90
9371;DHT22;4725;48.384;8.984;2022-12-07T12:49:43;5.30;
9371;DHT22;4725;48.384;8.984;2022-12-07T12:53:01;5.30;99.90
9371;DHT22;4725;48.384;8.984;2022-12-07T12:55:52;5.30;99.90
9371;DHT22;4725;48.384;8.984;2022-12-07T12:58:29;5.20;99.90
9371;DHT22;4725;48.384;8.984;2022-12-07T13:03:57;5.30;99.90
9371;DHT22;4725;48.384;8.984;2022-12-07T13:06:35;5.10;99.90
9371;DHT22;4725;48.384;8.984;2022-12-07T13:09:03;5.10;99.90
9371;DHT22;4725;48.384;8.984;2022-12-07T13:11:35;5.10;99.90
9371;DHT22;4725;48.384;8.984;2022-12-07T13:17:09;4.90;99.90
9371;DHT22;4725;48.384;8.984;2022-12-07T13:19:58;5.00;99.90
9371;DHT22;4725;48.384;8.984;2022-12-07T13:22:52;4.90;99.90
9371;DHT22;4725;48.384;8.984;2022-12-07T13:25:36;5.00;99.90
9371;DHT22;4725;48.384;8.984;2022-12-07T13:28:14;5.00;99.90
9371;DHT22;4725;48.384;8.984;2022-12-07T13:30:46;5.00;99.90
9371;DHT22;4725;48.384;8.984;2022-12-07T13:33:16;5.00;99.90
9371;DHT22;4725;48.384;8.984;2022-12-07T13:35:44;5.10;99.90
9371;DHT22;4725;48.384;8.984;2022-12-07T13:38:23;5.00;99.90
9371;DHT22;4725;48.384;8.984;2022-12-07T13:41:03;4.80;99.90
9371;DHT22;4725;48.384;8.984;2022-12-07T13:43:31;4.80;99.90
9371;DHT22;4725;48.384;8.984;2022-12-07T13:45:59;4.60;99.90
9371;DHT22;4725;48.384;8.984;2022-12-07T13:48:31;4.50;99.90
9371;DHT22;4725;48.384;8.984;2022-12-07T13:51:01;4.30;99.90
9371;DHT22;4725;48.384;8.984;2022-12-07T13:53:28;4.10;99.90
9371;DHT22;4725;48.384;8.984;2022-12-07T13:55:57;4.10;99.90
9371;DHT22;4725;48.384;8.984;2022-12-07T13:58:36;4.20;99.90
9371;DHT22;4725;48.384;8.984;2022-12-07T14:01:03;4.20;99.90
9371;DHT22;4725;48.384;8.984;2022-12-07T14:03:33;4.30;99.90
9371;DHT22;4725;48.384;8.984;2022-12-07T14:06:23;4.30;99.90
9371;DHT22;4725;48.384;8.984;2022-12-07T14:09:07;4.40;99.90
9371;DHT22;4725;48.384;8.984;2022-12-07T14:11:34;4.40;99.90
9371;DHT22;4725;48.384;8.984;2022-12-07T14:14:04;4.40;99.90
9371;DHT22;4725;48.384;8.984;2022-12-07T14:16:34;4.40;99.90
9371;DHT22;4725;48.384;8.984;2022-12-07T14:19:03;4.30;99.90
9371;DHT22;4725;48.384;8.984;2022-12-07T14:21:32;4.20;99.90
9371;DHT22;4725;48.384;8.984;2022-12-07T14:24:09;4.20;99.90
9371;DHT22;4725;48.384;8.984;2022-12-07T14:26:37;4.20;99.90
9371;DHT22;4725;48.384;8.984;2022-12-07T14:29:32;4.00;99.90
9371;DHT22;4725;48.384;8.984;2022-12-07T14:32:22;4.00;99.90
9371;DHT22;4725;48.384;8.984;2022-12-07T14:34:58;4.00;99.90
9371;DHT22;4725;48.384;8.984;2022-12-07T14:37:26;4.00;99.90
9371;DHT22;4725;48.384;8.984;2022-12-07T14:39:54;3.90;99.90
9371;DHT22;4725;48.384;8.984;2022-12-07T14:42:24;3.90;99.90
9371;DHT22;4725;48.384;8.984;2022-12-07T14:44:53;3.80;99.90
9371;DHT22;4725;48.384;8.984;2022-12-07T14:47:20;3.70;99.90
9371;DHT22;4725;48.384;8.984;2022-12-07T14:49:47;3.70;99.90
9371;DHT22;4725;48.384;8.984;2022-12-07T14:52:16;3.70;99.90
9371;DHT22;4725;48.384;8.984;2022-12-07T14:54:43;3.60;99.90
9371;DHT22;4725;48.384;8.984;2022-12-07T14:57:10;3.70;99.90
9371;DHT22;4725;48.384;8.984;2022-12-07T14:59:38;3.60;99.90
9371;DHT22;4725;48.384;8.984;2022-12-07T15:02:08;3.60;99.90
9371;DHT22;4725;48.384;8.984;2022-12-07T15:04:36;3.60;99.90
9371;DHT22;4725;48.384;8.984;2022-12-07T15:07:05;3.50;99.90
9371;DHT22;4725;48.384;8.984;2022-12-07T15:09:32;3.40;99.90
9371;DHT22;4725;48.384;8.984;2022-12-07T15:11:59;3.30;99.90
9371;DHT22;4725;48.384;8.984;2022-12-07T15:14:26;3.20;99.90
9371;DHT22;4725;48.384;8.984;2022-12-07T15:16:53;3.20;99.90
9371;DHT22;4725;48.384;8.984;2022-12-07T15:19:23;3.10;99.90
9371;DHT22;4725;48.384;8.984;2022-12-07T15:21:52;3.00;99.90
9371;DHT22;4725;48.384;8.984;2022-12-07T15:24:19;3.00;99.90
9371;DHT22;4725;48.384;8.984;2022-12-07T15:26:47;2.90;99.90
9371;DHT22;4725;48.384;8.984;2022-12-07T15:29:14;2.90;99.90
9371;DHT22;4725;48.384;8.984;2022-12-07T15:31:42;2.90;99.90
9371;DHT22;4725;48.384;8.984;2022-12-07T15:34:09;2.80;99.90
9371;DHT22;4725;48.384;8.984;2022-12-07T15:36:37;2.80;99.90
9371;DHT22;4725;48.384;8.984;2022-12-07T15:39:04;2.80;99.90
9371;DHT22;4725;48.384;8.984;2022-12-07T15:41:31;2.80;99.90
9371;DHT22;4725;48.384;8.984;2022-12-07T15:43:58;2.80;99.90
9371;DHT22;4725;48.384;8.984;2022-12-07T15:46:43;2.70;99.90
9371;DHT22;4725;48.384;8.984;2022-12-07T15:49:12;2.70;99.90
9371;DHT22;4725;48.384;8.984;2022-12-07T15:51:42;2.70;99.90
9371;DHT22;4725;48.384;8.984;2022-12-07T15:54:13;2.60;99.90
9371;DHT22;4725;48.384;8.984;2022-12-07T15:56:42;2.60;99.90
9371;DHT22;4725;48.384;8.984;2022-12-07T15:59:09;2.60;99.90
9371;DHT22;4725;48.384;8.984;2022-12-07T16:01:36;2.60;99.90
9371;DHT22;4725;48.384;8.984;2022-12-07T16:04:03;2.60;99.90
9371;DHT22;4725;48.384;8.984;2022-12-07T16:06:30;2.60;99.90
9371;DHT22;4725;48.384;8.984;2022-12-07T16:08:59;2.60;99.90
9371;DHT22;4725;48.384;8.984;2022-12-07T16:11:26;2.60;99.90
9371;DHT22;4725;48.384;8.984;2022-12-07T16:13:53;2.60;99.90
9371;DHT22;4725;48.384;8.984;2022-12-07T16:16:20;2.60;99.90
9371;DHT22;4725;48.384;8.984;2022-12-07T16:18:48;2.60;99.90
9371;DHT22;4725;48.384;8.984;2022-12-07T16:21:16;2.60;99.90
9371;DHT22;4725;48.384;8.984;2022-12-07T16:23:44;2.60;99.90
9371;DHT22;4725;48.384;8.984;2022-12-07T16:26:15;2.70;99.90
9371;DHT22;4725;48.384;8.984;2022-12-07T16:28:42;2.80;99.90
9371;DHT22;4725;48.384;8.984;2022-12-07T16:31:11;2.70;99.90
9371;DHT22;4725;48.384;8.984;2022-12-07T16:33:40;2.70;99.90
9371;DHT22;4725;48.384;8.984;2022-12-07T16:36:08;2.60;99.90
9371;DHT22;4725;48.384;8.984;2022-12-07T16:38:37;2.60;99.90
9371;DHT22;4725;48.384;8.984;2022-12-07T16:41:06;2.60;99.90
9371;DHT22;4725;48.384;8.984;2022-12-07T16:43:35;2.60;99.90
9371;DHT22;4725;48.384;8.984;2022-12-07T16:46:03;2.60;99.90
9371;DHT22;4725;48.384;8.984;2022-12-07T16:48:30;2.60;99.90
9371;DHT22;4725;48.384;8.984;2022-12-07T16:50:57;2.60;99.90
9371;DHT22;4725;48.384;8.984;2022-12-07T16:53:29;2.60;99.90
9371;DHT22;4725;48.384;8.984;2022-12-07T16:55:56;2.50;99.90
9371;DHT22;4725;48.384;8.984;2022-12-07T16:58:24;2.50;99.90
9371;DHT22;4725;48.384;8.984;2022-12-07T17:03:19;2.60;99.90
9371;DHT22;4725;48.384;8.984;2022-12-07T17:05:47;2.70;99.90
9371;DHT22;4725;48.384;8.984;2022-12-07T17:08:15;2.60;99.90
9371;DHT22;4725;48.384;8.984;2022-12-07T17:10:44;2.50;99.90
9371;DHT22;4725;48.384;8.984;2022-12-07T17:13:11;2.40;99.90
9371;DHT22;4725;48.384;8.984;2022-12-07T17:15:59;2.40;99.90